Flight Track Log - Related Links

Times and Time Zones

All times are in EST time to prevent confusion due to time zone crossing. See the SLI2335 flight status page for this flight to view local times or setup timezone preferences in your user account.

Time Position Orientation Groundspeed Altitude Reporting Facility
EST Latitude Longitude Course Direction KTS MPH feet Rate Location/Type
Fri 07:42:00 PM 29.0454 -110.2255 94° East  Level Estimated
Fri 07:43:00 PM 29.0401 -110.1433 94° East  Level Estimated
Fri 07:44:00 PM 29.0347 -110.0611 94° East  Level Estimated
Fri 07:45:00 PM 29.0293 -109.9789 94° East  Level Estimated
Fri 07:46:00 PM 29.0238 -109.8967 94° East  Level Estimated
Fri 07:47:00 PM 29.0183 -109.8146 94° East  Level Estimated
Fri 07:48:00 PM 29.0128 -109.7324 94° East  Level Estimated
Fri 07:49:00 PM 29.0071 -109.6503 94° East  Level Estimated
Fri 07:50:00 PM 29.0015 -109.5682 94° East  Level Estimated
Fri 07:51:00 PM 28.9957 -109.4860 95° East  Level Estimated
Fri 07:52:00 PM 28.9900 -109.4039 95° East  Level Estimated
Fri 07:53:00 PM 28.9841 -109.3218 95° East  Level Estimated
Fri 07:54:00 PM 28.9783 -109.2397 95° East  Level Estimated
Fri 07:55:00 PM 28.9724 -109.1576 95° East  Level Estimated
Fri 07:56:00 PM 28.9664 -109.0755 95° East  Level Estimated
Fri 07:57:00 PM 28.9604 -108.9935 95° East  Level Estimated
Fri 07:58:00 PM 28.9543 -108.9114 95° East  Level Estimated
Fri 07:59:00 PM 28.9482 -108.8294 95° East  Level Estimated
Fri 08:00:00 PM 28.9420 -108.7473 95° East  Level Estimated
Fri 08:01:00 PM 28.9358 -108.6653 95° East  Level Estimated
Fri 08:02:00 PM 28.9295 -108.5833 95° East  Level Estimated
Fri 08:03:00 PM 28.9232 -108.5013 95° East  Level Estimated
Fri 08:04:00 PM 28.9168 -108.4193 95° East  Level Estimated
Fri 08:05:00 PM 28.9104 -108.3373 95° East  Level Estimated
Fri 08:06:00 PM 28.9039 -108.2553 95° East  Level Estimated
Fri 08:07:00 PM 28.8974 -108.1733 95° East  Level Estimated
Fri 08:08:00 PM 28.8909 -108.0914 95° East  Level Estimated
Fri 08:09:00 PM 28.8843 -108.0094 95° East  Level Estimated
Fri 08:10:00 PM 28.8776 -107.9275 95° East  Level Estimated
Fri 08:11:00 PM 28.8709 -107.8456 95° East  Level Estimated
Fri 08:12:00 PM 28.8641 -107.7636 95° East  Level Estimated
Fri 08:13:00 PM 28.8573 -107.6817 95° East  Level Estimated
Fri 08:14:00 PM 28.8505 -107.5998 95° East  Level Estimated
Fri 08:15:00 PM 28.8435 -107.5180 95° East  Level Estimated
Fri 08:16:00 PM 28.8366 -107.4361 96° East  Level Estimated
Fri 08:17:00 PM 28.8296 -107.3542 96° East  Level Estimated
Fri 08:18:00 PM 28.8225 -107.2724 96° East  Level Estimated
Fri 08:19:00 PM 28.8154 -107.1905 96° East  Level Estimated
Fri 08:20:00 PM 28.8083 -107.1087 96° East  Level Estimated
Fri 08:21:00 PM 28.8010 -107.0269 96° East  Level Estimated
Fri 08:22:00 PM 28.7938 -106.9451 96° East  Level Estimated
Fri 08:23:00 PM 28.7865 -106.8633 96° East  Level Estimated
Fri 08:24:00 PM 28.7791 -106.7815 96° East  Level Estimated
Fri 08:25:00 PM 28.7717 -106.6997 96° East  Level Estimated
Fri 08:26:00 PM 28.7643 -106.6180 96° East  Level Estimated
Fri 08:27:00 PM 28.7568 -106.5362 96° East  Level Estimated
Fri 08:28:00 PM 28.7492 -106.4545 96° East  Level Estimated
Fri 08:29:00 PM 28.7416 -106.3728 96° East  Level Estimated
Fri 08:30:00 PM 28.7340 -106.2911 96° East  Level Estimated
Fri 08:31:00 PM 28.7263 -106.2094 96° East  Level Estimated
Fri 08:32:00 PM 28.7185 -106.1277 96° East  Level Estimated
Fri 08:33:00 PM 28.7107 -106.0460 96° East  Level Estimated
Fri 08:34:00 PM 28.7029 -105.9646 96° East  Level Estimated
Fri 08:35:00 PM 28.7029 -105.9646 28° Northeast  Level Estimated
Fri 08:36:00 PM 28.7029 -105.9646 152° Southeast  Level Estimated
Fri 08:37:00 PM 28.7029 -105.9646 28° Northeast  Level Estimated
Fri 08:38:00 PM 28.7029 -105.9646 152° Southeast  Level Estimated
Fri 08:39:00 PM 28.7029 -105.9646 28° Northeast  Level Estimated
Fri 08:40:00 PM 28.7029 -105.9646 152° Southeast  Level Estimated
Fri 08:41:00 PM 28.7029 -105.9646 28° Northeast  Level Estimated
Fri 08:42:00 PM 28.7029 -105.9646 152° Southeast  Level Estimated
Fri 08:43:00 PM 28.7029 -105.9646 28° Northeast  Level Estimated
Fri 08:44:00 PM 28.7029 -105.9646 152° Southeast  Level Estimated
Fri 08:45:00 PM 28.7029 -105.9646 28° Northeast  Level Estimated
Fri 08:46:00 PM 28.7029 -105.9646 152° Southeast  Level Estimated
Fri 08:47:00 PM 28.7029 -105.9646 28° Northeast  Level Estimated
Fri 08:48:00 PM 28.7029 -105.9646 152° Southeast  Level Estimated
Fri 08:49:00 PM 28.7029 -105.9646 28° Northeast  Level Estimated
Fri 08:50:00 PM 28.7029 -105.9646 152° Southeast  Level Estimated

Login

Don't have an account? Register now (free) for customized features, flight alerts, and more!